Friday, October 19, 2018, 12:53 AM EDT
Back to Local

KFOK, The Gabreski Airport

Location: East Quogue, NY, United States Lat: 40.85
Local Time: 12:53 AM EDT ( 4:53 GMT) Lon: -72.617
Time Zone: US/Eastern Elev: 65 ft

Show me the last for .
Show Decoded

2018-10-18 23:53 METAR KFOK 190353Z AUTO 00000KT 10SM CLR M01/M04 A3035 RMK AO2 SLP279 T10111044
                 =
2018-10-18 22:53 METAR KFOK 190253Z 00000KT 10SM CLR M01/M04 A3036 RMK AO2 SLP280 T10061044 53006
                 =
2018-10-18 21:53 METAR KFOK 190153Z 27005KT 10SM CLR 01/M04 A3035 RMK AO2 SLP277 T00061044 =
2018-10-18 20:53 METAR KFOK 190053Z 28004KT 10SM CLR 03/M03 A3034 RMK AO2 SLP276 T00281033 =
2018-10-18 19:53 METAR KFOK 182353Z 23004KT 10SM CLR 05/M04 A3034 RMK AO2 SLP274 T00501044 10106
                 20039 51017 =
2018-10-18 18:53 METAR KFOK 182253Z 27005KT 10SM CLR 05/M04 A3033 RMK AO2 SLP270 T00501039 =
2018-10-18 17:53 METAR KFOK 182153Z 27009KT 10SM CLR 08/M05 A3030 RMK AO2 SLP262 T00781050 =
2018-10-18 16:53 METAR KFOK 182053Z 27011G21KT 10SM CLR 10/M06 A3029 RMK AO2 SLP257 T01001056
                 55003 =
2018-10-18 15:53 METAR KFOK 181953Z 28012KT 10SM CLR 10/M06 A3029 RMK AO2 SLP257 T01001061 =
2018-10-18 14:53 METAR KFOK 181853Z 30014G23KT 10SM CLR 10/M06 A3029 RMK AO2 SLP258 T01001061 =
2018-10-18 13:53 METAR KFOK 181753Z 29013G24KT 10SM FEW055 10/M06 A3030 RMK AO2 PK WND 30029/1701
                 SLP260 T01001056 10100 20061 58005 =
2018-10-18 12:53 METAR KFOK 181653Z 32016G23KT 10SM CLR 08/M06 A3031 RMK AO2 PK WND 30030/1631
                 SLP263 T00831061 =
2018-10-18 11:53 METAR KFOK 181553Z 32013G24KT 10SM CLR 08/M06 A3032 RMK AO2 PK WND 30030/1530
                 SLP268 T00831061 =
2018-10-18 10:53 METAR KFOK 181453Z 35016G25KT 10SM CLR 08/M07 A3031 RMK AO2 PK WND 33027/1440
                 SLP264 T00781072 50014 =
2018-10-18 09:53 METAR KFOK 181353Z 31018G23KT 10SM CLR 07/M06 A3031 RMK AO2 SLP265 T00721056 $ =
2018-10-18 08:53 METAR KFOK 181253Z 35012G19KT 10SM FEW050 07/M05 A3030 RMK AO2 SLP262 T00671050
                 $ =
2018-10-18 07:53 METAR KFOK 181153Z 33013KT 10SM SCT050 BKN060 06/M04 A3027 RMK AO2 SLP251 70002
                 T00611044 10078 20044 $ =
2018-10-18 06:53 METAR KFOK 181053Z 30009KT 10SM SCT040 OVC070 06/M02 A3024 RMK AO2 SLP241
                 T00611017 $ =
2018-10-18 05:53 METAR KFOK 180953Z AUTO 31008KT 10SM SCT042 BKN060 OVC070 07/M03 A3021 RMK AO2
                 SLP231 T00671028 =
2018-10-18 04:53 METAR KFOK 180853Z AUTO 27007KT 10SM FEW048 BKN060 06/M02 A3018 RMK AO2 SLP220
                 T00561022 52019 =
2018-10-18 03:53 METAR KFOK 180753Z AUTO 26007G16KT 10SM SCT060 06/M03 A3016 RMK AO2 SLP213
                 T00611033 =
2018-10-18 02:53 METAR KFOK 180653Z AUTO 29009KT 10SM FEW060 07/M03 A3014 RMK AO2 SLP206
                 T00671033 =
2018-10-18 01:53 METAR KFOK 180553Z AUTO 30011KT 10SM FEW044 08/M02 A3012 RMK AO2 SLP200
                 T00781022 10122 20078 53020 =

Support USWX by starting your Amazon purchase here.